Time;durP1;ratioP1;P1;durP2;ratioP2;P2;SDS_P1;SDS_P2;PMS_P1;PMS_P2;Temp;Humidity;BMP_temperature;BMP_pressure;BME280_temperature;BME280_humidity;BME280_pressure;Samples;Min_cycle;Max_cycle;Signal;HPM_P1;HPM_P2
2023/03/09 00:01:40;;;;;;;10.70;5.28;;;;;;;-0.83;48.17;99446.47;5002595;28;20080;-77
2023/03/09 00:04:07;;;;;;;14.45;5.65;;;;;;;-0.82;48.61;99461.00;5010295;28;20048;-75
2023/03/09 00:06:32;;;;;;;14.73;5.55;;;;;;;-0.84;48.72;99449.91;5030136;28;20057;-80
2023/03/09 00:08:58;;;;;;;15.25;6.40;;;;;;;-0.78;48.59;99449.81;5023530;28;20048;-70
2023/03/09 00:11:24;;;;;;;17.42;6.20;;;;;;;-0.80;49.04;99454.13;5037758;28;20495;-70
2023/03/09 00:13:50;;;;;;;11.90;5.63;;;;;;;-0.71;48.38;99448.00;5021827;28;20041;-71
2023/03/09 00:16:17;;;;;;;12.23;6.10;;;;;;;-0.69;48.44;99452.22;5021638;28;20511;-70
2023/03/09 00:18:43;;;;;;;10.43;5.00;;;;;;;-0.70;48.80;99454.84;5024411;28;20098;-71
2023/03/09 00:21:14;;;;;;;16.98;7.15;;;;;;;-0.70;48.59;99460.81;5011029;28;20040;-76
2023/03/09 00:23:45;;;;;;;11.55;5.97;;;;;;;-0.67;48.50;99445.34;5034780;28;20103;-73
2023/03/09 00:26:11;;;;;;;16.88;7.40;;;;;;;-0.79;48.70;99455.81;5027610;28;20402;-74
2023/03/09 00:28:37;;;;;;;19.65;6.28;;;;;;;-0.85;48.75;99453.34;5005392;28;20046;-73
2023/03/09 00:31:05;;;;;;;14.00;5.85;;;;;;;-0.91;49.10;99448.31;5003016;28;20036;-73
2023/03/09 00:33:31;;;;;;;18.27;7.22;;;;;;;-0.89;49.14;99456.84;5002575;28;20041;-73
2023/03/09 00:35:57;;;;;;;12.10;6.50;;;;;;;-0.86;48.68;99456.78;5001285;28;21206;-72
2023/03/09 00:38:22;;;;;;;12.85;6.15;;;;;;;-0.90;48.97;99455.16;4997403;28;20518;-74
2023/03/09 00:40:49;;;;;;;14.90;6.13;;;;;;;-0.97;49.29;99462.94;5001814;28;20068;-72
2023/03/09 00:43:14;;;;;;;14.90;4.85;;;;;;;-0.98;49.30;99455.25;5000641;28;20072;-72
2023/03/09 00:45:40;;;;;;;20.73;6.18;;;;;;;-1.01;49.32;99456.16;5009905;28;20143;-72
2023/03/09 00:48:05;;;;;;;17.83;7.32;;;;;;;-1.14;49.37;99454.59;5006830;28;20679;-74
2023/03/09 00:50:31;;;;;;;15.50;6.47;;;;;;;-0.95;49.17;99454.34;5022399;28;20025;-72
2023/03/09 00:52:57;;;;;;;14.18;7.28;;;;;;;-1.02;49.19;99458.72;5018355;28;20053;-72
2023/03/09 00:55:23;;;;;;;14.05;5.47;;;;;;;-0.98;49.13;99458.66;5020984;28;20044;-71
2023/03/09 00:57:48;;;;;;;15.50;7.70;;;;;;;-1.07;49.02;99456.19;5016776;28;20050;-72
2023/03/09 01:00:14;;;;;;;15.90;5.97;;;;;;;-1.17;49.39;99458.06;4989991;28;20029;-72
2023/03/09 01:02:40;;;;;;;10.48;5.47;;;;;;;-1.24;48.96;99458.16;5012363;28;20045;-71
2023/03/09 01:05:07;;;;;;;12.88;6.25;;;;;;;-1.35;49.56;99454.88;5022378;28;20045;-70
2023/03/09 01:07:34;;;;;;;13.27;6.05;;;;;;;-1.50;49.69;99446.56;5029219;28;20620;-71
2023/03/09 01:10:00;;;;;;;12.65;5.65;;;;;;;-1.48;49.69;99452.50;5007249;28;21477;-74
2023/03/09 01:12:25;;;;;;;11.63;4.78;;;;;;;-1.53;49.70;99456.84;5011945;28;20045;-70
2023/03/09 01:14:58;;;;;;;13.35;5.38;;;;;;;-1.57;49.99;99454.34;5019461;28;20977;-71
2023/03/09 01:17:24;;;;;;;12.88;6.05;;;;;;;-1.62;50.06;99452.69;5024830;28;20419;-70
2023/03/09 01:19:49;;;;;;;12.23;5.50;;;;;;;-1.63;49.95;99452.69;5018102;28;20643;-65
2023/03/09 01:22:15;;;;;;;16.80;7.13;;;;;;;-1.71;50.08;99457.06;5021367;28;20049;-68
2023/03/09 01:24:42;;;;;;;13.05;6.00;;;;;;;-1.80;50.13;99453.75;5015250;28;20064;-70
2023/03/09 01:27:08;;;;;;;16.20;6.80;;;;;;;-1.82;50.14;99457.22;5018498;28;20142;-69
2023/03/09 01:29:33;;;;;;;15.00;5.40;;;;;;;-1.90;50.25;99457.28;5018310;28;20036;-66
2023/03/09 01:31:59;;;;;;;13.55;5.65;;;;;;;-1.95;50.41;99453.94;5019880;28;20029;-66
2023/03/09 01:34:24;;;;;;;12.48;6.03;;;;;;;-1.98;50.48;99455.69;5022400;28;20515;-68
2023/03/09 01:36:50;;;;;;;11.05;5.65;;;;;;;-2.04;50.52;99454.03;5021102;28;20043;-68
2023/03/09 01:39:15;;;;;;;10.68;5.63;;;;;;;-2.05;50.58;99447.22;5010606;28;20120;-70
2023/03/09 01:41:41;;;;;;;11.90;5.70;;;;;;;-2.04;50.64;99454.88;5022378;28;20049;-74
2023/03/09 01:44:12;;;;;;;12.15;5.32;;;;;;;-2.11;50.80;99447.28;5013348;28;20042;-73
2023/03/09 01:46:44;;;;;;;11.15;5.63;;;;;;;-2.18;51.05;99455.88;5021395;28;20128;-69
2023/03/09 01:49:09;;;;;;;14.02;6.05;;;;;;;-2.19;51.14;99454.19;5025985;28;20048;-65
2023/03/09 01:51:48;;;;;;;13.15;5.53;;;;;;;-2.28;51.20;99466.22;5028387;28;20123;-74
2023/03/09 01:54:25;;;;;;;10.40;4.63;;;;;;;-2.27;51.02;99457.69;5032871;28;20577;-69
2023/03/09 01:56:56;;;;;;;17.77;5.95;;;;;;;-2.22;51.17;99455.94;5022477;28;20457;-73
2023/03/09 01:59:25;;;;;;;11.40;5.22;;;;;;;-2.23;51.41;99459.34;5017350;28;20602;-74
2023/03/09 02:01:51;;;;;;;14.32;5.63;;;;;;;-2.24;51.27;99452.53;5018211;28;20460;-67
2023/03/09 02:04:26;;;;;;;10.20;5.82;;;;;;;-2.19;51.26;99454.19;5025873;28;20084;-73
2023/03/09 02:06:52;;;;;;;12.77;4.47;;;;;;;-2.24;51.27;99457.66;5035991;28;20029;-75
2023/03/09 02:09:28;;;;;;;13.18;5.25;;;;;;;-2.28;51.41;99455.97;5024548;28;20052;-70
2023/03/09 02:11:58;;;;;;;15.57;5.45;;;;;;;-2.30;51.26;99460.25;5021606;28;20029;-70
2023/03/09 02:14:24;;;;;;;12.40;5.78;;;;;;;-2.29;51.31;99464.53;5009451;28;20099;-71
2023/03/09 02:16:50;;;;;;;12.57;5.28;;;;;;;-2.34;51.48;99456.03;4990267;28;20119;-70
2023/03/09 02:19:29;;;;;;;12.70;5.43;;;;;;;-2.30;51.52;99457.69;5005031;28;20021;-71
2023/03/09 02:21:55;;;;;;;14.55;6.32;;;;;;;-2.35;51.91;99461.19;5001413;28;20036;-71
2023/03/09 02:24:43;;;;;;;12.90;5.55;;;;;;;-2.37;51.72;99466.31;4990178;28;20033;-71
2023/03/09 02:27:15;;;;;;;13.23;5.05;;;;;;;-2.34;51.74;99470.53;5020460;28;20057;-72
2023/03/09 02:29:41;;;;;;;12.32;6.35;;;;;;;-2.29;51.63;99467.09;5029231;28;20151;-71
2023/03/09 02:32:07;;;;;;;16.95;6.32;;;;;;;-2.25;51.42;99455.09;5025233;28;20033;-72
2023/03/09 02:34:32;;;;;;;12.40;6.63;;;;;;;-2.21;51.53;99459.31;4988957;28;20060;-75
2023/03/09 02:36:58;;;;;;;11.57;5.15;;;;;;;-2.17;51.36;99458.44;5001086;28;20120;-73
2023/03/09 02:39:34;;;;;;;11.57;5.47;;;;;;;-2.17;51.36;99463.56;5029598;28;20041;-74
2023/03/09 02:42:02;;;;;;;10.05;5.30;;;;;;;-2.07;51.41;99474.53;5011496;28;20029;-74
2023/03/09 02:44:28;;;;;;;12.23;5.90;;;;;;;-2.17;51.25;99483.19;5028058;28;20084;-74
2023/03/09 02:46:54;;;;;;;13.77;6.47;;;;;;;-2.03;51.23;99477.06;5023190;28;20037;-71
2023/03/09 02:49:20;;;;;;;10.80;5.90;;;;;;;-1.89;50.85;99484.59;5023418;28;20110;-73
2023/03/09 02:51:45;;;;;;;13.27;5.95;;;;;;;-1.94;50.54;99481.22;5022990;28;20040;-71
2023/03/09 02:54:14;;;;;;;8.60;5.43;;;;;;;-1.97;50.70;99488.94;5010706;28;20400;-71
2023/03/09 02:56:40;;;;;;;10.18;5.80;;;;;;;-2.02;50.93;99483.88;5026827;28;20061;-72
2023/03/09 02:59:08;;;;;;;16.25;5.93;;;;;;;-2.07;50.85;99497.59;5001336;28;20049;-71
2023/03/09 03:01:34;;;;;;;12.07;5.60;;;;;;;-2.09;51.14;99487.38;4999306;28;20037;-71
2023/03/09 03:04:01;;;;;;;12.90;5.68;;;;;;;-2.24;51.79;99488.38;5009551;28;20137;-72
2023/03/09 03:06:26;;;;;;;12.32;4.80;;;;;;;-2.20;51.52;99484.06;5027223;28;20055;-71
2023/03/09 03:08:52;;;;;;;10.93;5.35;;;;;;;-2.29;52.04;99485.00;5005050;28;20049;-72
2023/03/09 03:11:17;;;;;;;11.20;5.35;;;;;;;-2.28;52.14;99491.81;5023865;28;20033;-71
2023/03/09 03:13:43;;;;;;;14.38;5.65;;;;;;;-2.24;52.02;99498.59;5003493;28;20430;-71
2023/03/09 03:16:10;;;;;;;11.43;6.03;;;;;;;-2.13;51.88;99502.78;5000253;28;20065;-71
2023/03/09 03:18:36;;;;;;;13.63;4.88;;;;;;;-2.18;52.31;99512.19;5018336;28;20668;-72
2023/03/09 03:21:02;;;;;;;10.10;4.95;;;;;;;-2.01;52.32;99515.44;5010929;28;20071;-72
2023/03/09 03:23:28;;;;;;;10.50;5.45;;;;;;;-1.93;51.80;99515.34;5020843;28;20490;-72
2023/03/09 03:25:55;;;;;;;10.38;5.93;;;;;;;-1.93;51.69;99518.78;5011269;28;20029;-71
2023/03/09 03:28:22;;;;;;;12.95;5.97;;;;;;;-1.85;51.76;99522.09;5024459;28;20038;-72
2023/03/09 03:30:52;;;;;;;12.43;5.60;;;;;;;-1.78;51.68;99522.88;5010476;28;20083;-71
2023/03/09 03:33:19;;;;;;;12.00;5.20;;;;;;;-1.74;51.27;99528.84;5017651;28;20541;-71
2023/03/09 03:35:45;;;;;;;13.15;5.28;;;;;;;-1.77;51.51;99523.75;5021398;28;20102;-72
2023/03/09 03:38:11;;;;;;;12.52;5.40;;;;;;;-1.82;51.47;99532.34;5006913;28;20095;-70
2023/03/09 03:40:36;;;;;;;9.70;4.53;;;;;;;-1.64;51.36;99540.69;4985507;28;20034;-72
2023/03/09 03:43:07;;;;;;;14.15;5.75;;;;;;;-1.67;51.24;99538.16;5000235;28;20038;-72
2023/03/09 03:45:34;;;;;;;9.48;5.25;;;;;;;-1.68;51.52;99552.69;4987268;28;22296;-74
2023/03/09 03:48:01;;;;;;;11.77;5.00;;;;;;;-1.59;51.27;99552.56;5009557;28;20079;-73
2023/03/09 03:50:29;;;;;;;12.35;4.55;;;;;;;-1.76;51.35;99558.75;4987214;28;20636;-73
2023/03/09 03:52:58;;;;;;;11.15;5.43;;;;;;;-1.66;51.51;99552.66;5013605;28;20136;-74
2023/03/09 03:55:24;;;;;;;16.35;6.05;;;;;;;-1.59;51.20;99554.28;5016431;28;20506;-74
2023/03/09 03:57:50;;;;;;;13.27;4.35;;;;;;;-1.63;51.25;99553.47;5011191;28;20052;-73
2023/03/09 04:00:18;;;;;;;11.15;5.75;;;;;;;-1.73;51.68;99556.13;5009921;28;20040;-72
2023/03/09 04:02:43;;;;;;;14.73;6.07;;;;;;;-1.66;51.64;99560.34;5016793;28;20044;-71
2023/03/09 04:05:16;;;;;;;13.65;5.70;;;;;;;-1.68;51.71;99560.38;4997637;28;20057;-70
2023/03/09 04:07:44;;;;;;;10.77;5.20;;;;;;;-1.66;51.87;99558.63;4984251;28;20064;-70
2023/03/09 04:10:10;;;;;;;13.80;5.75;;;;;;;-1.59;51.63;99561.97;5003873;28;20061;-71
2023/03/09 04:12:40;;;;;;;12.88;6.00;;;;;;;-1.63;51.75;99562.88;5002400;28;20038;-71
2023/03/09 04:15:07;;;;;;;10.30;5.18;;;;;;;-1.53;51.73;99564.47;4997554;28;20084;-71
2023/03/09 04:17:33;;;;;;;11.82;6.45;;;;;;;-1.46;51.82;99560.13;5003940;28;20044;-76
2023/03/09 04:19:58;;;;;;;13.18;7.03;;;;;;;-1.47;51.54;99554.13;5022442;28;20127;-77
2023/03/09 04:22:24;;;;;;;12.20;4.55;;;;;;;-1.45;51.89;99552.41;5007667;28;20041;-77
2023/03/09 04:24:50;;;;;;;10.55;4.78;;;;;;;-1.44;52.02;99551.56;5004069;28;20040;-78
2023/03/09 04:27:15;;;;;;;12.60;5.60;;;;;;;-1.26;52.07;99557.34;4982310;28;20049;-75
2023/03/09 04:29:47;;;;;;;15.27;6.50;;;;;;;-1.33;51.97;99558.25;5000729;28;20037;-78
2023/03/09 04:32:16;;;;;;;12.55;5.95;;;;;;;-1.26;51.50;99557.34;5002073;28;20045;-75
2023/03/09 04:34:44;;;;;;;18.17;5.82;;;;;;;-1.21;51.72;99566.66;5018219;28;20079;-76
2023/03/09 04:37:11;;;;;;;14.88;5.45;;;;;;;-1.15;51.71;99570.88;4994230;28;20048;-75
2023/03/09 04:39:37;;;;;;;13.57;6.85;;;;;;;-1.07;51.41;99571.59;5003984;28;20038;-70
2023/03/09 04:42:02;;;;;;;12.82;5.78;;;;;;;-1.08;51.40;99572.47;5006752;28;20053;-71
2023/03/09 04:44:28;;;;;;;10.95;6.05;;;;;;;-1.04;51.21;99574.19;5019667;28;20032;-71
2023/03/09 04:46:54;;;;;;;14.10;6.53;;;;;;;-1.06;51.39;99575.91;5022688;28;20104;-70
2023/03/09 04:49:20;;;;;;;14.25;5.93;;;;;;;-0.99;51.03;99581.81;4999250;28;21035;-72
2023/03/09 04:51:46;;;;;;;14.00;5.18;;;;;;;-1.00;51.10;99587.78;4985596;28;20509;-73
2023/03/09 04:54:11;;;;;;;9.95;5.80;;;;;;;-1.06;51.47;99588.72;5000841;28;20030;-77
2023/03/09 04:56:37;;;;;;;11.00;5.57;;;;;;;-1.02;51.17;99594.66;5011022;28;20022;-76
2023/03/09 04:59:08;;;;;;;12.57;6.13;;;;;;;-1.04;50.90;99599.81;5037594;28;20038;-77
2023/03/09 05:01:34;;;;;;;12.70;6.38;;;;;;;-1.18;51.03;99594.81;5029800;28;22201;-76
2023/03/09 05:04:04;;;;;;;14.93;6.45;;;;;;;-1.22;51.33;99602.56;5017149;28;20037;-75
2023/03/09 05:06:34;;;;;;;18.02;6.13;;;;;;;-1.21;50.54;99597.41;5022211;28;20029;-73
2023/03/09 05:09:03;;;;;;;14.63;5.65;;;;;;;-1.36;50.79;99596.75;5024903;28;20037;-74
2023/03/09 05:11:29;;;;;;;16.17;6.55;;;;;;;-1.38;51.05;99605.28;5021007;28;20042;-73
2023/03/09 05:13:54;;;;;;;15.00;5.90;;;;;;;-1.36;51.24;99596.75;5013767;28;20053;-73
2023/03/09 05:16:22;;;;;;;13.60;5.47;;;;;;;-1.30;51.14;99604.38;5012218;28;20036;-73
2023/03/09 05:18:49;;;;;;;13.23;5.78;;;;;;;-1.35;50.90;99616.38;5029640;28;20053;-74
2023/03/09 05:21:17;;;;;;;12.25;6.13;;;;;;;-1.36;51.06;99622.38;5021073;28;20036;-73
2023/03/09 05:23:44;;;;;;;11.52;5.10;;;;;;;-1.43;51.17;99626.72;5023196;28;20532;-73
2023/03/09 05:26:12;;;;;;;13.55;4.57;;;;;;;-1.40;51.27;99630.13;5029962;28;20034;-74
2023/03/09 05:28:40;;;;;;;11.50;6.05;;;;;;;-1.38;51.64;99625.78;5024212;28;20068;-70
2023/03/09 05:31:08;;;;;;;9.32;5.60;;;;;;;-1.50;51.44;99625.94;5029462;28;20067;-71
2023/03/09 05:33:34;;;;;;;14.63;5.93;;;;;;;-1.28;51.04;99615.47;5005725;28;21080;-70
2023/03/09 05:36:00;;;;;;;13.02;6.10;;;;;;;-1.22;51.08;99612.81;5006516;28;20505;-71
2023/03/09 05:38:25;;;;;;;12.98;5.88;;;;;;;-1.28;51.25;99618.88;5015430;28;20132;-70
2023/03/09 05:40:52;;;;;;;11.00;5.57;;;;;;;-1.29;51.58;99624.00;5015905;28;20517;-71
2023/03/09 05:43:20;;;;;;;14.30;6.15;;;;;;;-1.16;51.01;99623.00;5023174;28;20106;-70
2023/03/09 05:45:55;;;;;;;12.20;6.50;;;;;;;-1.12;51.07;99628.97;5025370;28;20037;-70
2023/03/09 05:48:21;;;;;;;14.55;6.35;;;;;;;-1.12;50.90;99632.38;5013688;28;20052;-73
2023/03/09 05:50:46;;;;;;;16.90;6.05;;;;;;;-1.11;51.23;99644.31;5006324;28;20034;-75
2023/03/09 05:53:12;;;;;;;12.85;6.30;;;;;;;-1.11;50.96;99639.19;4982773;28;20653;-70
2023/03/09 05:55:37;;;;;;;15.18;6.65;;;;;;;-1.07;51.17;99640.84;4990111;28;20465;-71
2023/03/09 05:58:03;;;;;;;16.92;7.00;;;;;;;-1.07;51.26;99635.72;5001665;28;20030;-69
2023/03/09 06:00:29;;;;;;;14.52;5.50;;;;;;;-1.03;51.25;99632.28;4991913;28;20056;-67
2023/03/09 06:02:59;;;;;;;16.92;7.20;;;;;;;-1.10;51.13;99643.44;5009773;28;20523;-69
2023/03/09 06:05:42;;;;;;;14.98;6.20;;;;;;;-1.02;51.14;99643.38;5013922;28;20113;-71
2023/03/09 06:08:08;;;;;;;17.58;7.03;;;;;;;-1.11;51.29;99643.47;5005979;28;20088;-71
2023/03/09 06:10:36;;;;;;;15.82;6.50;;;;;;;-1.02;51.13;99639.13;5004443;28;20034;-70
2023/03/09 06:13:02;;;;;;;18.20;7.47;;;;;;;-1.02;50.92;99659.66;5009793;28;20440;-71
2023/03/09 06:15:29;;;;;;;14.35;6.85;;;;;;;-0.98;51.09;99665.56;4991522;28;20040;-70
2023/03/09 06:17:55;;;;;;;16.88;6.40;;;;;;;-0.89;50.67;99668.00;5000078;28;20041;-70
2023/03/09 06:20:25;;;;;;;20.17;6.72;;;;;;;-0.91;50.55;99671.47;4996924;28;21596;-69
2023/03/09 06:22:56;;;;;;;19.33;7.50;;;;;;;-0.95;50.76;99685.19;5007427;28;20037;-76
2023/03/09 06:25:21;;;;;;;15.48;6.35;;;;;;;-0.87;50.64;99688.53;4999124;28;20395;-71
2023/03/09 06:27:47;;;;;;;15.40;6.88;;;;;;;-0.89;50.62;99688.53;4999512;28;20046;-70
2023/03/09 06:30:16;;;;;;;15.50;6.82;;;;;;;-0.85;50.54;99686.81;5021446;28;20033;-71
2023/03/09 06:32:41;;;;;;;12.05;6.13;;;;;;;-0.79;50.81;99689.31;5022010;28;20051;-70
2023/03/09 06:35:08;;;;;;;18.52;7.53;;;;;;;-0.72;50.59;99698.63;5018994;28;20029;-74
2023/03/09 06:37:34;;;;;;;18.20;6.38;;;;;;;-0.67;50.55;99701.13;5015512;28;20705;-69
2023/03/09 06:40:00;;;;;;;15.18;6.43;;;;;;;-0.61;50.37;99703.63;5002533;28;20088;-72
2023/03/09 06:42:25;;;;;;;15.85;7.35;;;;;;;-0.45;50.34;99707.69;4982667;28;20030;-71
2023/03/09 06:44:53;;;;;;;12.82;6.53;;;;;;;-0.41;50.20;99719.59;4997589;28;20045;-71
2023/03/09 06:47:21;;;;;;;14.40;6.65;;;;;;;-0.31;49.71;99714.34;5000445;28;20534;-71
2023/03/09 06:49:54;;;;;;;15.40;6.70;;;;;;;-0.23;49.82;99717.66;4999298;28;20058;-69
2023/03/09 06:52:22;;;;;;;13.70;7.25;;;;;;;-0.21;49.79;99716.78;5004253;28;20042;-67
2023/03/09 06:54:48;;;;;;;15.43;6.65;;;;;;;-0.17;48.98;99713.28;5005824;28;20312;-77
2023/03/09 06:57:17;;;;;;;16.08;6.65;;;;;;;-0.18;49.35;99711.56;5009387;28;20040;-77
2023/03/09 06:59:43;;;;;;;14.02;7.25;;;;;;;-0.14;49.38;99718.38;5047075;28;20119;-78
2023/03/09 07:02:13;;;;;;;15.85;6.18;;;;;;;-0.06;49.16;99714.84;5032461;28;20549;-76
2023/03/09 07:04:40;;;;;;;13.85;7.32;;;;;;;0.11;48.84;99723.16;5014250;28;20164;-76
2023/03/09 07:07:08;;;;;;;15.10;7.07;;;;;;;0.33;48.56;99717.69;5012923;28;20124;-75
2023/03/09 07:09:33;;;;;;;16.38;6.57;;;;;;;0.45;48.83;99725.19;5023997;28;20037;-78
2023/03/09 07:11:59;;;;;;;17.88;7.13;;;;;;;0.61;47.43;99718.06;5030250;28;20029;-74
2023/03/09 07:14:26;;;;;;;11.30;6.18;;;;;;;0.77;46.90;99718.63;5007706;28;20037;-78
2023/03/09 07:16:53;;;;;;;16.60;7.50;;;;;;;0.93;47.47;99722.63;5002474;28;20123;-73
2023/03/09 07:19:19;;;;;;;16.83;8.25;;;;;;;1.16;46.79;99722.19;5003700;28;20045;-73
2023/03/09 07:21:44;;;;;;;15.55;7.85;;;;;;;1.30;46.57;99727.06;5001815;28;20124;-71
2023/03/09 07:24:10;;;;;;;14.00;7.43;;;;;;;1.60;45.59;99732.50;5000063;28;20041;-66
2023/03/09 07:26:35;;;;;;;15.50;7.85;;;;;;;2.03;44.54;99736.72;4999834;28;20042;-68
2023/03/09 07:29:01;;;;;;;11.00;6.25;;;;;;;2.57;43.65;99737.13;5020910;28;20079;-70
2023/03/09 07:31:28;;;;;;;12.18;7.03;;;;;;;3.24;42.94;99740.56;5031729;28;20561;-72
2023/03/09 07:33:55;;;;;;;13.85;7.40;;;;;;;4.76;40.08;99747.09;5002818;28;20495;-71
2023/03/09 07:36:21;;;;;;;14.10;6.15;;;;;;;6.21;36.65;99745.25;5008553;28;20042;-69
2023/03/09 07:38:47;;;;;;;12.90;6.15;;;;;;;7.18;34.58;99759.47;5000406;28;20038;-69
2023/03/09 07:41:14;;;;;;;8.85;5.53;;;;;;;7.14;33.74;99759.66;5002225;28;20576;-70
2023/03/09 07:43:45;;;;;;;9.10;5.78;;;;;;;6.02;33.92;99758.13;4997449;28;20069;-69
2023/03/09 07:46:24;;;;;;;17.15;7.63;;;;;;;4.89;36.11;99764.84;4997776;28;20543;-68
2023/03/09 07:48:49;;;;;;;13.02;5.75;;;;;;;4.00;37.31;99773.69;4998781;28;20048;-70
2023/03/09 07:51:15;;;;;;;10.70;5.32;;;;;;;3.49;38.87;99779.47;4996138;28;20133;-71
2023/03/09 07:53:41;;;;;;;12.05;6.57;;;;;;;3.53;39.01;99773.34;5007630;28;20509;-71
2023/03/09 07:56:08;;;;;;;15.48;5.20;;;;;;;3.29;39.61;99786.06;5010632;28;20037;-69
2023/03/09 07:58:35;;;;;;;13.27;6.40;;;;;;;3.13;39.73;99780.41;4996493;28;20049;-71
2023/03/09 08:01:02;;;;;;;13.30;6.03;;;;;;;3.13;39.71;99785.56;5023357;28;20152;-71
2023/03/09 08:03:28;;;;;;;15.18;6.22;;;;;;;2.93;40.42;99783.50;5006080;28;20041;-69
2023/03/09 08:05:55;;;;;;;12.15;6.60;;;;;;;3.24;40.40;99781.88;5006759;28;20549;-67
2023/03/09 08:08:26;;;;;;;8.25;4.65;;;;;;;3.55;40.20;99779.31;4995664;28;20045;-69
2023/03/09 08:10:52;;;;;;;13.23;5.75;;;;;;;3.49;39.91;99787.22;5006691;28;20128;-68
2023/03/09 08:13:20;;;;;;;9.13;5.20;;;;;;;3.74;40.67;99775.31;4998740;28;20231;-69
2023/03/09 08:15:46;;;;;;;9.80;5.63;;;;;;;4.25;39.11;99786.72;4999291;28;20962;-67
2023/03/09 08:18:12;;;;;;;10.18;5.50;;;;;;;4.81;37.95;99791.81;5011596;28;20052;-67
2023/03/09 08:20:38;;;;;;;10.25;5.35;;;;;;;6.22;35.63;99792.84;5019130;28;20037;-69
2023/03/09 08:23:04;;;;;;;10.00;5.07;;;;;;;7.79;33.11;99801.88;5024171;28;20123;-68
2023/03/09 08:25:30;;;;;;;9.75;4.70;;;;;;;8.41;30.17;99795.50;5018279;28;20041;-69
2023/03/09 08:27:56;;;;;;;8.15;4.72;;;;;;;8.13;30.48;99796.78;5020578;28;20044;-67
2023/03/09 08:30:23;;;;;;;10.05;5.25;;;;;;;7.57;30.82;99804.59;5017277;28;20033;-69
2023/03/09 08:32:49;;;;;;;11.88;4.90;;;;;;;7.87;30.79;99803.22;5012827;28;20049;-69
2023/03/09 08:35:16;;;;;;;10.85;5.88;;;;;;;8.18;30.04;99803.53;4997008;28;20067;-69
2023/03/09 08:37:41;;;;;;;8.45;5.53;;;;;;;7.97;30.63;99795.81;5000307;28;20065;-69
2023/03/09 08:40:09;;;;;;;8.60;4.57;;;;;;;7.93;31.36;99795.13;4997987;28;20486;-69
2023/03/09 08:42:35;;;;;;;7.55;4.03;;;;;;;7.51;31.64;99813.47;4997345;28;20474;-68
2023/03/09 08:45:01;;;;;;;7.75;4.93;;;;;;;7.70;30.68;99824.78;5005812;28;20030;-70
2023/03/09 08:47:27;;;;;;;6.10;3.78;;;;;;;7.17;30.95;99830.53;5005312;28;20045;-70
2023/03/09 08:49:52;;;;;;;7.70;4.38;;;;;;;6.79;32.04;99837.31;5020226;28;20094;-70
2023/03/09 08:52:18;;;;;;;8.45;3.72;;;;;;;6.82;32.40;99848.44;5018304;28;20098;-69
2023/03/09 08:54:44;;;;;;;8.90;4.68;;;;;;;6.59;32.24;99853.69;5020679;28;20033;-71
2023/03/09 08:57:09;;;;;;;7.35;3.88;;;;;;;5.96;32.36;99862.09;5018905;28;20076;-68
2023/03/09 08:59:35;;;;;;;6.18;3.25;;;;;;;6.28;32.40;99873.94;5014799;28;20471;-70
2023/03/09 09:02:01;;;;;;;6.18;3.85;;;;;;;6.37;31.77;99872.69;5018874;28;20113;-70
2023/03/09 09:04:27;;;;;;;8.90;4.28;;;;;;;5.98;32.63;99877.63;5006863;28;20524;-69
2023/03/09 09:06:53;;;;;;;8.23;3.63;;;;;;;5.80;33.37;99884.31;5018187;28;20456;-68
2023/03/09 09:09:19;;;;;;;8.00;3.67;;;;;;;5.51;33.71;99881.00;5018824;28;20032;-69
2023/03/09 09:11:45;;;;;;;13.02;4.75;;;;;;;5.58;33.86;99879.88;5017988;28;23216;-70
2023/03/09 09:14:11;;;;;;;6.07;3.80;;;;;;;5.62;33.76;99885.81;5020845;28;20091;-69
2023/03/09 09:16:36;;;;;;;5.85;3.33;;;;;;;5.21;33.62;99883.75;5014358;28;20159;-68
2023/03/09 09:19:02;;;;;;;6.55;2.22;;;;;;;4.51;34.24;99873.88;5021081;28;20615;-70
2023/03/09 09:21:28;;;;;;;6.22;2.95;;;;;;;4.51;34.39;99883.38;5018640;28;20033;-69
2023/03/09 09:23:54;;;;;;;6.57;3.88;;;;;;;4.52;34.89;99877.31;5019850;28;20126;-70
2023/03/09 09:26:20;;;;;;;4.45;2.35;;;;;;;4.49;34.98;99882.59;5019863;28;20041;-72
2023/03/09 09:28:46;;;;;;;6.15;3.08;;;;;;;4.64;34.95;99880.38;5013332;28;20692;-75
2023/03/09 09:31:17;;;;;;;6.43;3.15;;;;;;;4.37;35.38;99887.25;5018918;28;20036;-71
2023/03/09 09:33:43;;;;;;;5.75;3.75;;;;;;;4.57;35.43;99881.47;5020732;28;20908;-73
2023/03/09 09:36:15;;;;;;;6.95;4.10;;;;;;;4.60;34.67;99885.69;5018495;28;20167;-72
2023/03/09 09:38:42;;;;;;;7.93;4.50;;;;;;;4.86;34.71;99878.84;5014880;28;20103;-73
2023/03/09 09:41:17;;;;;;;6.07;2.72;;;;;;;5.35;33.58;99883.28;5000634;28;20038;-70
2023/03/09 09:43:44;;;;;;;4.95;2.88;;;;;;;5.64;33.24;99881.44;5012198;28;20049;-73
2023/03/09 09:46:15;;;;;;;4.68;2.88;;;;;;;5.41;33.40;99884.81;5016409;28;20040;-71
2023/03/09 09:48:42;;;;;;;8.25;3.78;;;;;;;5.58;33.59;99879.88;5011214;28;20190;-69
2023/03/09 09:51:07;;;;;;;5.72;3.40;;;;;;;5.46;33.82;99885.53;5019795;28;20029;-70
2023/03/09 09:53:51;;;;;;;7.78;3.78;;;;;;;5.57;33.14;99885.13;4989006;28;20045;-68
2023/03/09 09:56:22;;;;;;;10.10;3.65;;;;;;;5.06;33.86;99894.63;5005001;28;20045;-72
2023/03/09 09:58:53;;;;;;;5.38;2.70;;;;;;;4.13;35.59;99898.31;4998828;28;20073;-73
2023/03/09 10:01:25;;;;;;;5.82;2.45;;;;;;;4.21;36.13;99901.53;5006071;28;20037;-72
2023/03/09 10:03:53;;;;;;;5.68;3.33;;;;;;;5.00;35.00;99898.25;4998436;28;20095;-73
2023/03/09 10:06:21;;;;;;;7.30;3.47;;;;;;;4.80;35.84;99898.84;4999786;28;20111;-72
2023/03/09 10:08:49;;;;;;;6.95;2.80;;;;;;;4.55;35.42;99900.53;5001288;28;20765;-72
2023/03/09 10:11:30;;;;;;;3.92;2.85;;;;;;;5.27;34.29;99902.59;5018547;28;20685;-71
2023/03/09 10:14:33;;;;;;;6.13;2.57;;;;;;;6.09;33.80;99897.06;5007768;28;20052;-70
2023/03/09 10:17:18;;;;;;;6.93;2.42;;;;;;;5.85;33.68;99897.97;4998194;28;20068;-74
2023/03/09 10:19:46;;;;;;;8.35;2.92;;;;;;;5.61;34.00;99908.31;4996974;28;20040;-69
2023/03/09 10:22:16;;;;;;;5.15;2.75;;;;;;;5.36;34.37;99904.84;4999680;28;20762;-70
2023/03/09 10:24:44;;;;;;;5.07;3.13;;;;;;;5.31;34.34;99896.41;5018484;28;20184;-69
2023/03/09 10:27:25;;;;;;;4.20;2.40;;;;;;;5.15;34.25;99894.31;5001620;28;20127;-67
2023/03/09 10:29:57;;;;;;;4.38;2.63;;;;;;;5.07;35.03;99898.91;4984857;28;20069;-68
2023/03/09 10:32:44;;;;;;;4.63;2.88;;;;;;;4.70;35.93;99902.63;4992952;28;20141;-68
2023/03/09 10:35:21;;;;;;;4.28;2.92;;;;;;;5.12;35.20;99906.50;5017716;28;20036;-68
2023/03/09 10:37:50;;;;;;;5.80;2.55;;;;;;;5.66;33.96;99896.03;5023699;28;20065;-69
2023/03/09 10:40:29;;;;;;;6.53;3.67;;;;;;;6.19;34.89;99894.13;5007550;28;20037;-68
2023/03/09 10:42:58;;;;;;;4.32;3.00;;;;;;;6.82;32.40;99896.94;5018225;28;20041;-67
2023/03/09 10:45:29;;;;;;;6.22;2.60;;;;;;;6.54;32.90;99907.56;5018006;28;20639;-69
2023/03/09 10:48:03;;;;;;;8.15;2.03;;;;;;;6.64;32.48;99909.75;5008905;28;20044;-68
2023/03/09 10:50:40;;;;;;;5.15;2.45;;;;;;;6.31;32.61;99908.41;4979030;28;20087;-70
2023/03/09 10:53:33;;;;;;;4.15;1.95;;;;;;;6.06;32.76;99912.75;4998540;28;20157;-69
2023/03/09 10:56:21;;;;;;;4.57;2.05;;;;;;;6.48;31.77;99913.81;4999422;28;20025;-70
2023/03/09 10:59:07;;;;;;;3.80;2.45;;;;;;;6.75;31.84;99917.09;4993487;28;20054;-69
2023/03/09 11:01:47;;;;;;;8.00;2.42;;;;;;;6.48;32.39;99909.50;5001310;28;20099;-69
2023/03/09 11:04:22;;;;;;;4.95;2.22;;;;;;;5.61;33.14;99918.69;4998288;28;20426;-68
2023/03/09 11:06:51;;;;;;;4.55;2.20;;;;;;;5.32;34.15;99927.41;4996107;28;20034;-70
2023/03/09 11:09:40;;;;;;;5.80;1.98;;;;;;;4.87;34.53;99927.16;5016897;28;20495;-70
2023/03/09 11:12:21;;;;;;;5.63;2.63;;;;;;;4.57;34.82;99934.97;5014136;28;20735;-67
2023/03/09 11:14:55;;;;;;;6.38;2.15;;;;;;;4.27;34.91;99927.19;4993399;28;20479;-68
2023/03/09 11:17:31;;;;;;;2.90;2.00;;;;;;;4.16;35.37;99926.66;4998026;28;20043;-68
2023/03/09 11:20:12;;;;;;;6.78;2.38;;;;;;;4.56;35.07;99922.91;4982093;28;20226;-67
2023/03/09 11:22:50;;;;;;;3.50;2.65;;;;;;;4.90;34.15;99924.47;4993026;28;20053;-68
2023/03/09 11:25:57;;;;;;;2.10;1.48;;;;;;;5.28;33.21;99919.81;4995864;28;20041;-69
2023/03/09 11:28:45;;;;;;;5.38;1.60;;;;;;;5.72;32.38;99907.09;4995245;28;20049;-67
2023/03/09 11:31:38;;;;;;;4.30;1.67;;;;;;;5.71;32.83;99920.97;4986675;28;20670;-67
2023/03/09 11:34:25;;;;;;;3.60;2.15;;;;;;;6.24;34.74;99916.44;4999981;28;20053;-69
2023/03/09 11:36:59;;;;;;;3.42;1.83;;;;;;;6.40;31.49;99918.47;4997899;28;20026;-68
2023/03/09 11:40:03;;;;;;;3.40;1.63;;;;;;;5.86;32.10;99912.63;4997946;28;20156;-67